createdAt,value
2022-11-30T00:03:39.607Z,83.00
2022-11-30T00:07:21.275Z,83.10
2022-11-30T00:11:09.111Z,83.10
2022-11-30T00:14:50.720Z,83.20
2022-11-30T00:18:32.344Z,83.10
2022-11-30T00:22:14.165Z,83.10
2022-11-30T00:25:55.736Z,83.00
2022-11-30T00:29:37.335Z,83.00
2022-11-30T00:33:19.261Z,83.10
2022-11-30T00:37:00.844Z,83.10
2022-11-30T00:40:42.436Z,83.10
2022-11-30T00:44:25.356Z,83.20
2022-11-30T00:48:07.019Z,83.30
2022-11-30T00:51:49.832Z,83.40
2022-11-30T00:55:33.250Z,83.40
2022-11-30T00:59:14.845Z,83.40
2022-11-30T01:02:59.325Z,83.40
2022-11-30T01:06:40.920Z,83.40
2022-11-30T01:10:25.578Z,83.40
2022-11-30T01:14:07.220Z,83.40
2022-11-30T01:17:48.866Z,83.30
2022-11-30T01:21:30.526Z,83.30
2022-11-30T01:25:12.443Z,83.40
2022-11-30T01:28:54.274Z,83.50
2022-11-30T01:32:36.035Z,83.50
2022-11-30T01:36:18.575Z,83.50
2022-11-30T01:40:00.180Z,83.50
2022-11-30T01:43:46.972Z,83.60
2022-11-30T01:47:37.020Z,83.60
2022-11-30T01:51:18.748Z,83.60
2022-11-30T01:55:04.182Z,83.60
2022-11-30T01:58:45.798Z,83.60
2022-11-30T02:02:46.416Z,83.70
2022-11-30T02:06:28.086Z,83.70
2022-11-30T02:10:13.605Z,83.60
2022-11-30T02:13:58.281Z,83.70
2022-11-30T02:17:47.268Z,83.70
2022-11-30T02:21:40.566Z,83.80
2022-11-30T02:25:25.923Z,83.70
2022-11-30T02:29:18.774Z,83.70
2022-11-30T02:33:16.275Z,83.80
2022-11-30T02:36:58.351Z,83.80
2022-11-30T02:40:40.172Z,83.80
2022-11-30T02:44:21.813Z,83.80
2022-11-30T02:48:06.411Z,83.70
2022-11-30T02:51:49.100Z,83.70
2022-11-30T02:55:32.049Z,83.80
2022-11-30T02:59:13.659Z,83.80
2022-11-30T03:02:55.482Z,83.90
2022-11-30T03:06:37.108Z,83.80
2022-11-30T03:10:18.709Z,83.80
2022-11-30T03:14:00.346Z,83.80
2022-11-30T03:17:41.997Z,83.70
2022-11-30T03:21:23.584Z,83.80
2022-11-30T03:25:05.388Z,83.70
2022-11-30T03:28:46.965Z,83.80
2022-11-30T03:32:30.435Z,83.80
2022-11-30T03:36:12.211Z,83.80
2022-11-30T03:39:58.187Z,83.80
2022-11-30T03:43:40.617Z,83.80
2022-11-30T03:47:22.248Z,83.90
2022-11-30T03:51:04.363Z,83.80
2022-11-30T03:54:46.310Z,83.80
2022-11-30T03:58:28.167Z,83.80
2022-11-30T04:02:11.043Z,83.80
2022-11-30T04:05:52.690Z,83.80
2022-11-30T04:09:34.282Z,83.80
2022-11-30T04:13:17.021Z,83.80
2022-11-30T04:16:58.674Z,83.80
2022-11-30T04:20:40.802Z,83.80
2022-11-30T04:24:22.801Z,83.80
2022-11-30T04:28:04.393Z,83.80
2022-11-30T04:31:46.413Z,83.80
2022-11-30T04:35:28.041Z,83.80
2022-11-30T04:39:09.638Z,83.80
2022-11-30T04:42:51.392Z,83.80
2022-11-30T04:46:33.048Z,83.90
2022-11-30T04:50:14.768Z,83.80
2022-11-30T04:53:57.430Z,83.80
2022-11-30T04:57:39.016Z,83.80
2022-11-30T05:01:20.671Z,83.90
2022-11-30T05:05:02.549Z,83.90
2022-11-30T05:08:44.133Z,83.90
2022-11-30T05:12:25.803Z,84.00
2022-11-30T05:16:08.563Z,84.00
2022-11-30T05:19:50.173Z,84.00
2022-11-30T05:23:31.828Z,83.90
2022-11-30T05:27:16.721Z,84.00
2022-11-30T05:31:04.291Z,84.00
2022-11-30T05:34:51.120Z,84.00
2022-11-30T05:38:33.499Z,84.00
2022-11-30T05:42:16.185Z,84.10
2022-11-30T05:46:01.075Z,84.10
2022-11-30T05:49:42.814Z,84.00
2022-11-30T05:53:24.668Z,84.00
2022-11-30T05:57:06.325Z,83.90
2022-11-30T06:00:47.922Z,83.90
2022-11-30T06:04:29.776Z,84.00
2022-11-30T06:08:11.359Z,84.00
2022-11-30T06:11:53.056Z,84.10
2022-11-30T06:15:34.651Z,84.10
2022-11-30T06:19:16.244Z,84.10
2022-11-30T06:22:59.209Z,84.10
2022-11-30T06:26:40.873Z,84.20
2022-11-30T06:30:22.547Z,84.20
2022-11-30T06:34:04.460Z,84.20
2022-11-30T06:37:46.046Z,84.20
2022-11-30T06:41:29.966Z,84.20
2022-11-30T06:45:11.638Z,84.20
2022-11-30T06:48:53.242Z,84.20
2022-11-30T06:52:35.140Z,84.30
2022-11-30T06:56:16.736Z,84.30
2022-11-30T06:59:58.439Z,84.30
2022-11-30T07:03:41.569Z,84.30
2022-11-30T07:07:23.242Z,84.30
2022-11-30T07:11:05.135Z,84.40
2022-11-30T07:14:47.159Z,84.40
2022-11-30T07:18:32.157Z,84.30
2022-11-30T07:22:14.684Z,84.30
2022-11-30T07:26:07.924Z,84.40
2022-11-30T07:29:51.535Z,84.30
2022-11-30T07:33:35.400Z,84.30
2022-11-30T07:37:17.046Z,83.70
2022-11-30T07:40:58.651Z,84.10
2022-11-30T07:44:41.413Z,84.10
2022-11-30T07:48:23.005Z,84.00
2022-11-30T07:52:05.493Z,84.00
2022-11-30T07:55:47.209Z,84.10
2022-11-30T07:59:28.804Z,84.00
2022-11-30T08:03:10.740Z,84.10
2022-11-30T08:06:53.203Z,84.00
2022-11-30T08:10:34.792Z,84.00
2022-11-30T08:14:16.405Z,84.60
2022-11-30T08:18:00.152Z,84.00
2022-11-30T08:21:41.901Z,84.00
2022-11-30T08:25:23.531Z,84.00
2022-11-30T08:29:05.120Z,84.10
2022-11-30T08:32:46.968Z,84.00
2022-11-30T08:36:32.754Z,84.00
2022-11-30T08:40:14.491Z,84.00
2022-11-30T08:43:56.422Z,84.00
2022-11-30T08:47:38.136Z,84.10
2022-11-30T08:51:19.985Z,84.10
2022-11-30T08:55:01.623Z,84.00
2022-11-30T08:58:43.337Z,84.00
2022-11-30T09:02:26.526Z,84.00
2022-11-30T09:06:08.332Z,84.70
2022-11-30T09:09:49.967Z,84.10
2022-11-30T09:13:31.699Z,84.00
2022-11-30T09:17:13.289Z,84.00
2022-11-30T09:20:58.340Z,84.60
2022-11-30T09:24:41.460Z,83.90
2022-11-30T09:28:23.105Z,83.90
2022-11-30T09:32:06.601Z,83.90
2022-11-30T09:35:55.078Z,83.90
2022-11-30T09:39:36.688Z,83.90
2022-11-30T09:43:27.389Z,83.90
2022-11-30T09:47:09.013Z,83.80
2022-11-30T09:50:50.642Z,83.80
2022-11-30T09:54:52.280Z,83.70
2022-11-30T09:58:42.889Z,83.50
2022-11-30T10:02:28.520Z,83.50
2022-11-30T10:06:27.103Z,83.40
2022-11-30T10:10:32.383Z,83.50
2022-11-30T10:14:15.174Z,83.50
2022-11-30T10:17:57.439Z,83.40
2022-11-30T10:22:18.827Z,83.40
2022-11-30T10:26:07.119Z,83.50
2022-11-30T10:29:48.738Z,83.30
2022-11-30T10:33:38.710Z,83.30
2022-11-30T10:37:34.133Z,83.20
2022-11-30T10:41:22.994Z,83.00
2022-11-30T10:45:11.620Z,83.10
2022-11-30T10:48:57.789Z,83.00
2022-11-30T10:52:47.680Z,83.10
2022-11-30T10:56:29.327Z,82.90
2022-11-30T11:00:15.185Z,82.90
2022-11-30T11:04:12.547Z,82.70
2022-11-30T11:08:06.544Z,82.80
2022-11-30T11:11:52.104Z,83.40
2022-11-30T11:15:34.108Z,82.60
2022-11-30T11:19:22.764Z,82.70
2022-11-30T11:23:04.617Z,82.70
2022-11-30T11:26:49.767Z,82.70
2022-11-30T11:30:31.543Z,82.70
2022-11-30T11:34:32.018Z,82.80
2022-11-30T11:38:24.340Z,82.60
2022-11-30T11:42:27.930Z,82.50
2022-11-30T11:46:12.587Z,82.40
2022-11-30T11:50:04.668Z,82.50
2022-11-30T11:53:53.270Z,82.40
2022-11-30T11:57:40.756Z,82.40
2022-11-30T12:01:41.190Z,82.50
2022-11-30T12:05:42.905Z,82.50
2022-11-30T12:09:25.544Z,82.40
2022-11-30T12:13:28.498Z,82.40
2022-11-30T12:17:16.258Z,82.30
2022-11-30T12:21:02.715Z,82.30
2022-11-30T12:24:52.441Z,82.30
2022-11-30T12:28:35.653Z,82.30
2022-11-30T12:32:55.315Z,82.30
2022-11-30T12:36:41.217Z,82.30
2022-11-30T12:40:23.214Z,82.20
2022-11-30T12:44:23.317Z,82.20
2022-11-30T12:48:07.996Z,82.20
2022-11-30T12:52:27.592Z,82.10
2022-11-30T12:56:10.845Z,82.10
2022-11-30T13:00:00.101Z,82.10
2022-11-30T13:03:42.991Z,82.20
2022-11-30T13:07:33.543Z,82.10
2022-11-30T13:11:20.004Z,82.10
2022-11-30T13:15:02.246Z,82.10
2022-11-30T13:18:43.901Z,82.10
2022-11-30T13:22:29.720Z,82.20
2022-11-30T13:26:27.096Z,82.30
2022-11-30T13:30:11.810Z,82.20
2022-11-30T13:33:53.553Z,82.10
2022-11-30T13:37:35.212Z,82.20
2022-11-30T13:41:19.765Z,82.30
2022-11-30T13:45:13.651Z,82.30
2022-11-30T13:49:14.085Z,82.10
2022-11-30T13:53:33.405Z,82.20
2022-11-30T13:57:18.772Z,82.10
2022-11-30T14:01:04.796Z,82.20
2022-11-30T14:04:47.999Z,82.10
2022-11-30T14:08:31.367Z,82.00
2022-11-30T14:12:34.871Z,81.90
2022-11-30T14:16:23.430Z,81.90
2022-11-30T14:20:09.492Z,81.90
2022-11-30T14:23:55.408Z,81.80
2022-11-30T14:27:37.092Z,82.00
2022-11-30T14:31:20.975Z,82.00
2022-11-30T14:35:05.506Z,81.90
2022-11-30T14:38:47.140Z,81.80
2022-11-30T14:42:32.025Z,81.70
2022-11-30T14:46:16.679Z,81.70
2022-11-30T14:49:59.603Z,81.70
2022-11-30T14:53:52.709Z,81.70
2022-11-30T14:57:36.195Z,81.50
2022-11-30T15:01:19.024Z,81.60
2022-11-30T15:05:00.761Z,81.50
2022-11-30T15:08:43.360Z,81.50
2022-11-30T15:13:02.975Z,81.50
2022-11-30T15:16:57.389Z,81.50
2022-11-30T15:20:39.940Z,81.50
2022-11-30T15:24:23.984Z,81.60
2022-11-30T15:28:05.906Z,81.60
2022-11-30T15:31:48.802Z,81.60
2022-11-30T15:35:49.948Z,81.70
2022-11-30T15:39:32.780Z,81.80
2022-11-30T15:43:33.568Z,81.70
2022-11-30T15:47:26.222Z,81.70
2022-11-30T15:51:16.187Z,81.80
2022-11-30T15:55:17.762Z,81.80
2022-11-30T15:59:06.590Z,81.80
2022-11-30T16:02:51.440Z,81.70
2022-11-30T16:06:36.692Z,81.80
2022-11-30T16:10:24.442Z,81.70
2022-11-30T16:14:06.319Z,81.70
2022-11-30T16:17:48.047Z,81.70
2022-11-30T16:21:29.939Z,81.80
2022-11-30T16:25:15.078Z,81.70
2022-11-30T16:28:57.757Z,81.70
2022-11-30T16:32:40.572Z,81.90
2022-11-30T16:36:22.218Z,81.70
2022-11-30T16:40:04.228Z,81.60
2022-11-30T16:43:47.823Z,81.70
2022-11-30T16:47:29.462Z,81.60
2022-11-30T16:51:15.697Z,81.60
2022-11-30T16:55:20.114Z,81.70
2022-11-30T16:59:01.746Z,81.60
2022-11-30T17:03:04.690Z,81.70
2022-11-30T17:06:50.282Z,81.60
2022-11-30T17:10:32.899Z,81.70
2022-11-30T17:14:14.692Z,81.70
2022-11-30T17:18:00.445Z,81.80
2022-11-30T17:22:03.113Z,81.90
2022-11-30T17:25:44.797Z,82.00
2022-11-30T17:29:26.464Z,82.00
2022-11-30T17:33:08.338Z,82.10
2022-11-30T17:36:56.113Z,82.10
2022-11-30T17:40:39.304Z,82.10
2022-11-30T17:44:21.109Z,82.10
2022-11-30T17:48:02.770Z,82.10
2022-11-30T17:51:44.741Z,82.10
2022-11-30T17:55:27.182Z,82.20
2022-11-30T17:59:09.395Z,82.30
2022-11-30T18:02:52.233Z,82.40
2022-11-30T18:06:33.907Z,82.50
2022-11-30T18:10:15.591Z,82.50
2022-11-30T18:13:59.627Z,82.60
2022-11-30T18:17:41.392Z,82.60
2022-11-30T18:21:23.445Z,82.70
2022-11-30T18:25:05.244Z,82.70
2022-11-30T18:28:47.018Z,82.70
2022-11-30T18:32:28.799Z,82.80
2022-11-30T18:36:10.463Z,82.80
2022-11-30T18:39:52.085Z,82.80
2022-11-30T18:43:34.905Z,82.70
2022-11-30T18:47:16.640Z,82.60
2022-11-30T18:50:58.304Z,82.50
2022-11-30T18:54:41.119Z,82.40
2022-11-30T18:58:22.764Z,82.30
2022-11-30T19:02:05.805Z,82.30
2022-11-30T19:05:47.540Z,82.30
2022-11-30T19:09:29.241Z,82.30
2022-11-30T19:13:29.700Z,82.40
2022-11-30T19:17:11.463Z,82.40
2022-11-30T19:20:53.118Z,82.50
2022-11-30T19:24:36.115Z,82.50
2022-11-30T19:28:17.788Z,82.50
2022-11-30T19:32:00.625Z,82.60
2022-11-30T19:35:42.325Z,82.60
2022-11-30T19:39:24.031Z,82.70
2022-11-30T19:43:05.709Z,82.70
2022-11-30T19:46:47.384Z,82.70
2022-11-30T19:50:29.072Z,82.70
2022-11-30T19:54:11.591Z,82.70
2022-11-30T19:57:53.243Z,82.80
2022-11-30T20:01:35.256Z,82.80
2022-11-30T20:05:17.389Z,82.80
2022-11-30T20:08:59.039Z,82.80
2022-11-30T20:12:42.039Z,82.80
2022-11-30T20:16:23.756Z,82.80
2022-11-30T20:20:05.812Z,82.90
2022-11-30T20:23:47.792Z,82.90
2022-11-30T20:27:29.610Z,82.80
2022-11-30T20:31:11.617Z,82.80
2022-11-30T20:34:53.386Z,82.80
2022-11-30T20:38:35.177Z,82.70
2022-11-30T20:42:16.984Z,82.70
2022-11-30T20:45:58.687Z,82.70
2022-11-30T20:49:40.396Z,82.60
2022-11-30T20:53:22.136Z,82.60
2022-11-30T20:57:03.770Z,82.60
2022-11-30T21:00:45.387Z,82.70
2022-11-30T21:04:27.209Z,82.90
2022-11-30T21:08:08.881Z,82.90
2022-11-30T21:11:50.772Z,83.10
2022-11-30T21:15:32.502Z,83.10
2022-11-30T21:19:14.319Z,83.20
2022-11-30T21:22:56.183Z,83.20
2022-11-30T21:26:38.966Z,83.20
2022-11-30T21:30:20.657Z,83.10
2022-11-30T21:34:02.695Z,83.00
2022-11-30T21:37:44.354Z,82.90
2022-11-30T21:41:26.432Z,82.90
2022-11-30T21:45:08.468Z,82.80
2022-11-30T21:48:50.336Z,83.50
2022-11-30T21:52:32.096Z,82.80
2022-11-30T21:56:14.891Z,82.80
2022-11-30T21:59:56.584Z,82.80
2022-11-30T22:03:38.508Z,82.80
2022-11-30T22:07:31.443Z,82.80
2022-11-30T22:11:13.860Z,82.70
2022-11-30T22:14:55.502Z,82.80
2022-11-30T22:18:37.180Z,82.90
2022-11-30T22:22:19.145Z,82.90
2022-11-30T22:26:19.764Z,82.80
2022-11-30T22:30:01.417Z,82.80
2022-11-30T22:33:43.392Z,82.90
2022-11-30T22:37:25.053Z,82.90
2022-11-30T22:41:07.225Z,82.90
2022-11-30T22:44:48.975Z,82.80
2022-11-30T22:48:30.975Z,82.70
2022-11-30T22:52:12.870Z,82.70
2022-11-30T22:55:54.625Z,82.70
2022-11-30T22:59:36.333Z,82.80
2022-11-30T23:03:18.362Z,82.50
2022-11-30T23:07:00.078Z,82.60
2022-11-30T23:10:41.701Z,82.70
2022-11-30T23:14:23.337Z,82.60
2022-11-30T23:18:05.008Z,82.60
2022-11-30T23:21:50.101Z,82.50
2022-11-30T23:25:31.863Z,82.50
2022-11-30T23:29:13.917Z,82.60
2022-11-30T23:32:56.365Z,82.60
2022-11-30T23:36:38.019Z,82.60
2022-11-30T23:40:19.802Z,82.60
2022-11-30T23:44:01.522Z,82.60
2022-11-30T23:47:43.154Z,82.60
2022-11-30T23:51:25.162Z,82.50
2022-11-30T23:55:07.159Z,82.40
2022-11-30T23:58:48.793Z,82.60
